METAR Data
IDs: Format: Raw Decoded Include TAF

Data at: 1300 UTC 26 Feb 2021

KSGH 261256Z AUTO 10014KT 8SM CLR M02/M03 A3031 RMK AO2 SLP276 T10171028